Time;durP1;ratioP1;P1;durP2;ratioP2;P2;SDS_P1;SDS_P2;PMS_P1;PMS_P2;Temp;Humidity;BMP_temperature;BMP_pressure;BME280_temperature;BME280_humidity;BME280_pressure;Samples;Min_cycle;Max_cycle;Signal;HPM_P1;HPM_P2
2021/04/24 00:01:30;;;;;;;12.20;4.73;;;7.10;99.90;;;;;;5047845;28;20087;-66
2021/04/24 00:03:58;;;;;;;14.10;5.30;;;7.10;99.90;;;;;;5051499;28;20055;-68
2021/04/24 00:06:25;;;;;;;11.53;5.53;;;6.80;99.90;;;;;;5051821;28;21174;-68
2021/04/24 00:08:52;;;;;;;11.77;5.47;;;6.90;99.90;;;;;;5051413;28;20630;-68
2021/04/24 00:11:19;;;;;;;11.03;4.97;;;7.00;99.90;;;;;;5052286;28;20508;-68
2021/04/24 00:13:46;;;;;;;13.33;5.27;;;7.10;99.90;;;;;;5053311;28;20736;-68
2021/04/24 00:16:13;;;;;;;12.30;5.07;;;6.90;99.90;;;;;;5049536;28;20091;-68
2021/04/24 00:18:40;;;;;;;15.20;5.40;;;7.00;99.90;;;;;;5050126;28;20487;-70
2021/04/24 00:21:06;;;;;;;;;;;7.00;99.90;;;;;;5054837;28;20401;-67
2021/04/24 00:23:33;;;;;;;15.60;5.50;;;7.00;99.90;;;;;;5050258;28;19924;-71
2021/04/24 00:26:01;;;;;;;14.87;5.20;;;7.00;99.90;;;;;;5050690;28;20086;-70
2021/04/24 00:28:28;;;;;;;17.50;5.63;;;7.10;99.90;;;;;;5048844;28;20057;-70
2021/04/24 00:30:54;;;;;;;13.67;5.33;;;7.00;99.90;;;;;;5050609;28;20505;-68
2021/04/24 00:33:21;;;;;;;15.70;5.43;;;6.80;99.90;;;;;;5051676;28;20186;-68
2021/04/24 00:35:48;;;;;;;12.23;4.83;;;6.70;99.90;;;;;;5050636;28;21257;-71
2021/04/24 00:38:14;;;;;;;14.20;6.17;;;6.70;99.90;;;;;;5048397;28;20075;-68
2021/04/24 00:40:40;;;;;;;;;;;6.70;99.90;;;;;;5051153;28;20080;-68
2021/04/24 00:43:08;;;;;;;11.93;5.37;;;6.60;99.90;;;;;;5049495;28;19931;-68
2021/04/24 00:45:34;;;;;;;11.20;5.40;;;6.70;99.90;;;;;;5050348;28;20791;-68
2021/04/24 00:48:01;;;;;;;12.43;5.37;;;6.70;99.90;;;;;;5052944;28;20047;-70
2021/04/24 00:50:30;;;;;;;14.20;5.77;;;6.70;99.90;;;;;;5050090;28;20072;-70
2021/04/24 00:52:57;;;;;;;11.67;5.30;;;6.60;99.90;;;;;;5050105;28;20049;-67
2021/04/24 00:55:23;;;;;;;14.80;6.07;;;6.70;99.90;;;;;;5049774;28;20052;-70
2021/04/24 00:57:51;;;;;;;17.77;6.23;;;6.50;99.90;;;;;;5054001;28;20053;-67
2021/04/24 01:00:22;;;;;;;12.90;6.43;;;6.40;99.90;;;;;;5054160;28;20060;-68
2021/04/24 01:02:49;;;;;;;14.83;5.77;;;6.40;99.90;;;;;;5053498;28;20051;-69
2021/04/24 01:05:20;;;;;;;16.17;5.57;;;6.40;99.90;;;;;;5055970;28;20077;-70
2021/04/24 01:07:47;;;;;;;14.83;5.60;;;6.30;99.90;;;;;;5053351;28;20048;-68
2021/04/24 01:10:15;;;;;;;16.30;5.87;;;6.30;99.90;;;;;;5054612;28;20150;-68
2021/04/24 01:12:42;;;;;;;12.87;5.70;;;6.20;99.90;;;;;;5054654;28;20145;-69
2021/04/24 01:15:11;;;;;;;15.67;5.77;;;6.30;99.90;;;;;;5055332;28;20053;-69
2021/04/24 01:17:39;;;;;;;11.47;5.93;;;6.30;99.90;;;;;;5056024;28;20048;-69
2021/04/24 01:20:08;;;;;;;14.43;5.93;;;6.20;99.90;;;;;;5056224;28;20429;-68
2021/04/24 01:22:36;;;;;;;11.30;4.97;;;6.20;99.90;;;;;;5057028;28;20056;-69
2021/04/24 01:25:06;;;;;;;11.33;5.03;;;6.20;99.90;;;;;;5054510;28;20075;-68
2021/04/24 01:27:33;;;;;;;15.80;5.93;;;6.10;99.90;;;;;;5055865;28;20199;-69
2021/04/24 01:29:59;;;;;;;15.47;5.93;;;6.00;99.90;;;;;;5059135;28;20131;-71
2021/04/24 01:32:26;;;;;;;11.13;5.33;;;5.90;99.90;;;;;;5055807;28;20084;-68
2021/04/24 01:34:53;;;;;;;10.97;5.13;;;5.70;99.90;;;;;;5062858;28;20045;-69
2021/04/24 01:37:20;;;;;;;12.07;5.23;;;5.90;99.90;;;;;;5060793;28;20900;-68
2021/04/24 01:39:47;;;;;;;12.50;5.10;;;6.00;99.90;;;;;;5060715;28;20051;-68
2021/04/24 01:42:13;;;;;;;8.83;4.73;;;5.90;99.90;;;;;;5059473;28;20049;-68
2021/04/24 01:44:40;;;;;;;;;;;5.80;99.90;;;;;;5057362;28;20044;-68
2021/04/24 01:47:06;;;;;;;11.97;5.13;;;5.90;99.90;;;;;;5052209;28;19924;-72
2021/04/24 01:49:33;;;;;;;14.40;5.37;;;5.90;99.90;;;;;;5055680;28;20072;-69
2021/04/24 01:52:01;;;;;;;14.00;5.00;;;5.90;99.90;;;;;;5060371;28;20052;-73
2021/04/24 01:54:27;;;;;;;12.33;5.10;;;5.70;99.90;;;;;;5060003;28;20079;-68
2021/04/24 01:56:57;;;;;;;13.07;5.70;;;5.70;99.90;;;;;;5061818;28;20376;-68
2021/04/24 01:59:27;;;;;;;12.97;6.10;;;5.70;99.90;;;;;;5061803;28;20146;-69
2021/04/24 02:01:56;;;;;;;11.53;5.30;;;5.80;99.90;;;;;;5058171;28;20052;-69
2021/04/24 02:04:28;;;;;;;10.50;5.13;;;5.70;99.90;;;;;;5059482;28;20052;-69
2021/04/24 02:06:55;;;;;;;15.20;5.03;;;5.60;99.90;;;;;;5059186;28;20082;-69
2021/04/24 02:09:23;;;;;;;12.23;5.10;;;5.60;99.90;;;;;;5061997;28;20055;-66
2021/04/24 02:12:06;;;;;;;12.70;4.97;;;5.60;99.90;;;;;;5064975;28;20052;-67
2021/04/24 02:14:36;;;;;;;10.67;5.17;;;5.60;99.90;;;;;;5063595;28;20121;-66
2021/04/24 02:17:04;;;;;;;13.70;5.20;;;5.60;99.90;;;;;;5064659;28;20803;-66
2021/04/24 02:19:30;;;;;;;17.33;5.13;;;5.60;99.90;;;;;;5065190;28;20052;-67
2021/04/24 02:21:57;;;;;;;13.83;5.63;;;5.50;99.90;;;;;;5064988;28;20155;-66
2021/04/24 02:24:24;;;;;;;16.77;5.33;;;5.50;99.90;;;;;;5063694;28;20062;-66
2021/04/24 02:26:50;;;;;;;;;;;5.50;99.90;;;;;;5062493;28;20052;-67
2021/04/24 02:29:18;;;;;;;19.17;7.05;;;5.40;99.90;;;;;;5063889;28;19935;-66
2021/04/24 02:31:44;;;;;;;17.10;6.27;;;5.40;99.90;;;;;;5065182;28;20048;-66
2021/04/24 02:34:13;;;;;;;16.63;7.00;;;5.40;99.90;;;;;;5061274;28;20044;-68
2021/04/24 02:36:39;;;;;;;16.93;6.43;;;5.20;99.90;;;;;;5063293;28;20102;-67
2021/04/24 02:39:06;;;;;;;14.07;5.67;;;5.20;99.90;;;;;;5066509;28;20041;-66
2021/04/24 02:41:32;;;;;;;18.53;6.37;;;5.20;99.90;;;;;;5061205;28;20053;-66
2021/04/24 02:43:59;;;;;;;19.20;6.37;;;5.30;99.90;;;;;;5064996;28;20059;-68
2021/04/24 02:46:26;;;;;;;15.77;6.33;;;5.10;99.90;;;;;;5067465;28;20511;-66
2021/04/24 02:48:53;;;;;;;13.03;5.47;;;5.20;99.90;;;;;;5064499;28;20055;-67
2021/04/24 02:51:19;;;;;;;12.07;5.63;;;5.30;99.90;;;;;;5073692;28;20052;-67
2021/04/24 02:53:46;;;;;;;;;;;5.30;99.90;;;;;;5074196;28;20060;-67
2021/04/24 02:56:12;;;;;;;13.00;6.10;;;5.40;99.90;;;;;;5073627;28;19924;-68
2021/04/24 02:58:40;;;;;;;12.80;5.93;;;5.30;99.90;;;;;;5073637;28;20059;-67
2021/04/24 03:01:06;;;;;;;15.10;6.50;;;5.20;99.90;;;;;;5075620;28;20076;-67
2021/04/24 03:03:34;;;;;;;15.27;6.80;;;5.20;99.90;;;;;;5073352;28;20109;-67
2021/04/24 03:06:00;;;;;;;12.27;6.43;;;5.00;99.90;;;;;;5073529;28;20048;-68
2021/04/24 03:08:26;;;;;;;17.57;6.73;;;4.90;99.90;;;;;;5073461;28;20057;-67
2021/04/24 03:10:53;;;;;;;13.47;6.30;;;4.80;99.90;;;;;;5073398;28;20056;-66
2021/04/24 03:13:19;;;;;;;14.50;6.17;;;4.90;99.90;;;;;;5073934;28;20052;-67
2021/04/24 03:15:46;;;;;;;12.53;5.77;;;4.80;99.90;;;;;;5073490;28;21087;-68
2021/04/24 03:18:13;;;;;;;13.40;6.17;;;4.70;99.90;;;;;;5073599;28;20048;-66
2021/04/24 03:20:40;;;;;;;13.40;5.67;;;4.70;99.90;;;;;;5072454;28;20060;-69
2021/04/24 03:23:09;;;;;;;13.37;6.93;;;4.60;99.90;;;;;;5074421;28;20343;-67
2021/04/24 03:25:36;;;;;;;14.50;5.87;;;4.60;99.90;;;;;;5073639;28;20051;-68
2021/04/24 03:28:02;;;;;;;14.47;5.87;;;4.70;99.90;;;;;;5072290;28;20044;-67
2021/04/24 03:30:29;;;;;;;13.97;5.73;;;4.70;99.90;;;;;;5074158;28;20458;-67
2021/04/24 03:32:55;;;;;;;14.43;6.03;;;4.70;99.90;;;;;;5074538;28;20476;-68
2021/04/24 03:35:22;;;;;;;13.07;5.50;;;4.70;99.90;;;;;;5072377;28;20060;-66
2021/04/24 03:37:50;;;;;;;17.83;6.43;;;4.70;99.90;;;;;;5071176;28;20568;-69
2021/04/24 03:40:17;;;;;;;12.13;5.53;;;4.60;99.90;;;;;;5068850;28;20049;-68
2021/04/24 03:42:43;;;;;;;14.83;5.93;;;4.60;99.90;;;;;;5071095;28;20051;-66
2021/04/24 03:45:18;;;;;;;12.87;6.30;;;4.50;99.90;;;;;;5069620;28;20056;-67
2021/04/24 03:47:46;;;;;;;16.27;5.50;;;4.60;99.90;;;;;;5068361;28;20098;-67
2021/04/24 03:50:13;;;;;;;13.27;6.30;;;4.70;99.90;;;;;;5070439;28;20803;-68
2021/04/24 03:52:40;;;;;;;11.63;5.33;;;4.60;99.90;;;;;;5070064;28;20067;-67
2021/04/24 03:55:09;;;;;;;15.83;6.13;;;4.70;99.90;;;;;;5072787;28;20052;-66
2021/04/24 03:57:35;;;;;;;15.60;6.17;;;4.60;99.90;;;;;;5073167;28;20051;-67
2021/04/24 04:00:05;;;;;;;13.83;6.37;;;4.60;99.90;;;;;;5072810;28;20053;-67
2021/04/24 04:02:45;;;;;;;11.87;5.47;;;4.50;99.90;;;;;;5070956;28;20719;-68
2021/04/24 04:05:12;;;;;;;13.13;6.30;;;4.50;99.90;;;;;;5072899;28;20108;-68
2021/04/24 04:07:39;;;;;;;15.27;6.13;;;4.40;99.90;;;;;;5072955;28;20587;-66
2021/04/24 04:10:07;;;;;;;;;;;4.50;99.90;;;;;;5071650;28;20501;-66
2021/04/24 04:12:33;;;;;;;15.20;5.87;;;4.40;99.90;;;;;;5073681;28;20384;-67
2021/04/24 04:15:00;;;;;;;15.07;5.17;;;4.50;99.90;;;;;;5070334;28;20517;-67
2021/04/24 04:17:27;;;;;;;12.30;5.77;;;4.50;99.90;;;;;;5071332;28;20055;-66
2021/04/24 04:19:54;;;;;;;15.77;5.87;;;4.60;99.90;;;;;;5070584;28;20098;-67
2021/04/24 04:22:20;;;;;;;15.40;5.73;;;4.30;99.90;;;;;;5069493;28;20072;-66
2021/04/24 04:24:47;;;;;;;12.17;5.60;;;4.40;99.90;;;;;;5068576;28;20056;-66
2021/04/24 04:27:14;;;;;;;14.83;6.00;;;4.50;99.90;;;;;;5067235;28;20131;-67
2021/04/24 04:29:40;;;;;;;12.93;6.17;;;4.50;99.90;;;;;;5070316;28;20045;-67
2021/04/24 04:32:07;;;;;;;13.50;5.10;;;4.50;99.90;;;;;;5068197;28;20097;-66
2021/04/24 04:34:33;;;;;;;15.67;5.70;;;4.60;99.90;;;;;;5070480;28;20141;-70
2021/04/24 04:37:00;;;;;;;;;;;4.60;99.90;;;;;;5070686;28;20075;-66
2021/04/24 04:39:26;;;;;;;10.47;5.33;;;4.60;99.90;;;;;;5070788;28;19978;-66
2021/04/24 04:41:53;;;;;;;17.97;6.57;;;4.60;99.90;;;;;;5072965;28;20075;-68
2021/04/24 04:44:20;;;;;;;13.30;5.23;;;4.60;99.90;;;;;;5073077;28;20048;-67
2021/04/24 04:46:46;;;;;;;12.27;5.40;;;4.60;99.90;;;;;;5071486;28;20072;-68
2021/04/24 04:49:13;;;;;;;13.43;5.40;;;4.60;99.90;;;;;;5071287;28;20419;-66
2021/04/24 04:51:39;;;;;;;11.73;5.67;;;4.60;99.90;;;;;;5071355;28;20044;-67
2021/04/24 04:54:06;;;;;;;13.10;5.43;;;4.60;99.90;;;;;;5072440;28;20059;-67
2021/04/24 04:56:33;;;;;;;13.57;5.93;;;4.60;99.90;;;;;;5069791;28;20059;-67
2021/04/24 04:58:59;;;;;;;11.03;5.27;;;4.60;99.90;;;;;;5069644;28;20059;-67
2021/04/24 05:01:27;;;;;;;14.83;5.50;;;4.60;99.90;;;;;;5071897;28;20056;-66
2021/04/24 05:03:53;;;;;;;14.40;5.57;;;4.60;99.90;;;;;;5071816;28;20053;-66
2021/04/24 05:06:19;;;;;;;13.37;6.03;;;4.60;99.90;;;;;;5069698;28;20060;-67
2021/04/24 05:08:46;;;;;;;;;;;4.70;99.90;;;;;;5072100;28;20048;-69
2021/04/24 05:11:12;;;;;;;11.63;4.90;;;4.70;99.90;;;;;;5069327;28;19955;-67
2021/04/24 05:13:39;;;;;;;19.87;5.80;;;4.80;99.90;;;;;;5072544;28;20054;-66
2021/04/24 05:16:05;;;;;;;18.47;6.37;;;4.80;99.90;;;;;;5068920;28;20048;-66
2021/04/24 05:18:33;;;;;;;14.03;5.57;;;4.90;99.90;;;;;;5069503;28;20052;-67
2021/04/24 05:21:00;;;;;;;15.23;5.20;;;4.90;99.90;;;;;;5070733;28;20044;-66
2021/04/24 05:23:26;;;;;;;14.30;6.47;;;4.90;99.90;;;;;;5070241;28;20063;-67
2021/04/24 05:25:53;;;;;;;13.37;5.90;;;4.90;99.90;;;;;;5067859;28;20056;-67
2021/04/24 05:28:20;;;;;;;13.73;5.00;;;5.10;99.90;;;;;;5070230;28;20069;-68
2021/04/24 05:30:46;;;;;;;16.63;5.93;;;5.20;99.90;;;;;;5069744;28;20171;-66
2021/04/24 05:33:13;;;;;;;11.97;5.80;;;5.10;99.90;;;;;;5068088;28;20056;-66
2021/04/24 05:35:40;;;;;;;17.70;6.63;;;5.00;99.90;;;;;;5069048;28;20048;-68
2021/04/24 05:38:07;;;;;;;13.57;5.43;;;5.10;99.90;;;;;;5068272;28;20052;-66
2021/04/24 05:40:34;;;;;;;14.00;5.73;;;5.10;99.90;;;;;;5065897;28;20125;-68
2021/04/24 05:43:00;;;;;;;12.33;5.30;;;5.20;99.90;;;;;;5064026;28;20524;-69
2021/04/24 05:45:27;;;;;;;12.10;5.60;;;5.10;99.90;;;;;;5067830;28;20060;-75
2021/04/24 05:47:54;;;;;;;12.60;5.60;;;5.20;99.90;;;;;;5067114;28;20461;-67
2021/04/24 05:50:22;;;;;;;12.47;5.80;;;5.10;99.90;;;;;;5067405;28;20081;-68
2021/04/24 05:52:50;;;;;;;14.80;5.63;;;5.20;99.90;;;;;;5069316;28;20083;-67
2021/04/24 05:55:17;;;;;;;12.77;5.73;;;5.30;99.90;;;;;;5071664;28;20052;-67
2021/04/24 05:57:44;;;;;;;14.60;5.63;;;5.40;99.90;;;;;;5072731;28;20044;-66
2021/04/24 06:00:17;;;;;;;11.40;5.20;;;5.40;99.90;;;;;;5072604;28;20052;-65
2021/04/24 06:02:43;;;;;;;14.40;5.50;;;5.50;99.90;;;;;;5070681;28;20056;-69
2021/04/24 06:05:10;;;;;;;12.77;5.80;;;5.50;99.90;;;;;;5071688;28;20048;-68
2021/04/24 06:07:37;;;;;;;15.63;5.93;;;5.60;99.90;;;;;;5070849;28;20060;-66
2021/04/24 06:10:07;;;;;;;15.47;5.97;;;5.70;99.90;;;;;;5070994;28;20462;-66
2021/04/24 06:12:34;;;;;;;13.73;5.67;;;5.80;99.90;;;;;;5071363;28;20044;-65
2021/04/24 06:15:00;;;;;;;11.07;5.60;;;5.90;99.90;;;;;;5071989;28;20131;-66
2021/04/24 06:17:27;;;;;;;14.73;6.43;;;6.00;99.90;;;;;;5068586;28;20073;-70
2021/04/24 06:19:53;;;;;;;15.70;5.77;;;6.10;99.90;;;;;;5065332;28;20049;-67
2021/04/24 06:22:20;;;;;;;11.87;5.43;;;6.20;99.90;;;;;;5067598;28;20053;-66
2021/04/24 06:24:47;;;;;;;15.87;5.60;;;6.30;99.90;;;;;;5068258;28;20040;-69
2021/04/24 06:27:14;;;;;;;;;;;6.40;99.90;;;;;;5068802;28;20122;-66
2021/04/24 06:29:40;;;;;;;16.00;5.25;;;6.50;99.90;;;;;;5067646;28;20420;-65
2021/04/24 06:32:07;;;;;;;15.30;6.43;;;6.50;99.90;;;;;;5068935;28;20731;-68
2021/04/24 06:34:34;;;;;;;13.83;6.47;;;6.70;99.90;;;;;;5067495;28;20084;-66
2021/04/24 06:37:00;;;;;;;14.10;6.53;;;6.70;99.90;;;;;;5067275;28;20052;-68
2021/04/24 06:39:27;;;;;;;13.17;5.60;;;6.90;99.90;;;;;;5070636;28;20118;-66
2021/04/24 06:41:57;;;;;;;14.93;5.77;;;7.00;99.90;;;;;;5069434;28;20051;-66
2021/04/24 06:44:24;;;;;;;12.03;5.63;;;7.00;99.90;;;;;;5067847;28;20074;-66
2021/04/24 06:46:51;;;;;;;15.57;5.83;;;7.10;99.90;;;;;;5068515;28;20063;-66
2021/04/24 06:49:17;;;;;;;17.30;5.70;;;7.20;99.90;;;;;;5066851;28;20056;-68
2021/04/24 06:51:44;;;;;;;16.17;5.60;;;7.20;99.90;;;;;;5069339;28;20048;-68
2021/04/24 06:54:12;;;;;;;;;;;7.30;99.90;;;;;;5071633;28;20076;-68
2021/04/24 06:56:38;;;;;;;16.83;5.80;;;7.30;99.90;;;;;;5067543;28;19928;-68
2021/04/24 06:59:05;;;;;;;15.90;6.57;;;7.60;99.90;;;;;;5072625;28;20101;-68
2021/04/24 07:01:33;;;;;;;13.17;5.80;;;7.70;99.90;;;;;;5071048;28;20048;-68
2021/04/24 07:03:59;;;;;;;16.33;5.77;;;7.70;99.90;;;;;;5068847;28;20117;-69
2021/04/24 07:06:26;;;;;;;12.77;5.40;;;7.80;99.90;;;;;;5066813;28;20056;-68
2021/04/24 07:08:53;;;;;;;15.50;5.70;;;7.80;99.90;;;;;;5068690;28;20678;-68
2021/04/24 07:11:19;;;;;;;14.27;6.07;;;8.00;99.90;;;;;;5066411;28;20152;-68
2021/04/24 07:13:46;;;;;;;12.85;5.93;;;8.10;99.90;;;;;;5063039;28;20079;-69
2021/04/24 07:16:13;;;;;;;14.82;5.53;;;8.30;99.90;;;;;;5062639;28;20151;-69
2021/04/24 07:18:40;;;;;;;12.30;5.80;;;8.50;99.90;;;;;;5062008;28;20064;-69
2021/04/24 07:21:08;;;;;;;13.90;6.38;;;8.60;99.90;;;;;;5062658;28;20077;-68
2021/04/24 07:23:36;;;;;;;12.45;5.78;;;8.80;99.90;;;;;;5061681;28;20452;-68
2021/04/24 07:26:02;;;;;;;17.05;6.03;;;9.10;99.90;;;;;;5062163;28;20139;-68
2021/04/24 07:28:29;;;;;;;12.90;5.45;;;9.20;99.90;;;;;;5061265;28;20067;-68
2021/04/24 07:30:55;;;;;;;;;;;9.30;99.90;;;;;;5061743;28;20481;-68
2021/04/24 07:33:23;;;;;;;11.85;5.40;;;9.50;99.90;;;;;;5061612;28;19963;-68
2021/04/24 07:35:51;;;;;;;17.75;5.93;;;9.60;99.90;;;;;;5061001;28;20504;-67
2021/04/24 07:38:17;;;;;;;15.82;6.32;;;9.80;99.90;;;;;;5060509;28;20151;-68
2021/04/24 07:40:44;;;;;;;11.50;4.78;;;10.00;99.90;;;;;;5062353;28;20059;-67
2021/04/24 07:43:11;;;;;;;13.45;5.53;;;10.10;99.90;;;;;;5062313;28;20083;-68
2021/04/24 07:45:37;;;;;;;11.50;4.85;;;10.30;99.90;;;;;;5062500;28;20079;-68
2021/04/24 07:48:05;;;;;;;17.42;6.18;;;10.50;99.90;;;;;;5063476;28;20550;-68
2021/04/24 07:50:32;;;;;;;12.75;5.65;;;10.70;99.90;;;;;;5060835;28;20083;-68
2021/04/24 07:53:00;;;;;;;13.95;5.95;;;10.70;99.90;;;;;;5063077;28;20083;-68
2021/04/24 07:55:26;;;;;;;14.10;5.22;;;10.80;99.90;;;;;;5062555;28;20052;-67
2021/04/24 07:57:53;;;;;;;12.02;5.15;;;11.00;99.90;;;;;;5053098;28;20072;-67
2021/04/24 08:00:19;;;;;;;;;;;11.20;99.90;;;;;;5057582;28;20150;-67
2021/04/24 08:02:46;;;;;;;16.20;5.70;;;11.20;99.90;;;;;;5058874;28;19924;-67
2021/04/24 08:05:17;;;;;;;;;;;11.40;99.90;;;;;;5061323;28;20325;-67
2021/04/24 08:07:43;;;;;;;17.48;5.68;;;11.70;99.90;;;;;;5060380;28;19920;-67
2021/04/24 08:10:11;;;;;;;;;;;11.70;99.90;;;;;;5062989;28;20048;-67
2021/04/24 08:12:37;;;;;;;11.75;4.90;;;12.00;99.90;;;;;;5060813;28;20011;-67
2021/04/24 08:15:05;;;;;;;14.30;5.63;;;12.00;99.90;;;;;;5065283;28;20121;-67
2021/04/24 08:17:32;;;;;;;12.23;5.65;;;12.30;99.90;;;;;;5062894;28;20057;-67
2021/04/24 08:19:59;;;;;;;14.18;5.25;;;12.50;99.90;;;;;;5061742;28;20056;-69
2021/04/24 08:22:25;;;;;;;15.43;5.10;;;12.80;99.90;;;;;;5063116;28;20075;-67
2021/04/24 08:24:52;;;;;;;13.15;5.28;;;13.10;99.90;;;;;;5063279;28;20048;-67
2021/04/24 08:27:19;;;;;;;13.10;5.22;;;13.40;99.90;;;;;;5057540;28;20132;-68
2021/04/24 08:29:46;;;;;;;13.27;5.40;;;14.10;99.90;;;;;;5058518;28;20048;-67
2021/04/24 08:32:13;;;;;;;16.60;5.78;;;14.60;99.90;;;;;;5057451;28;21126;-67
2021/04/24 08:34:39;;;;;;;11.85;5.35;;;14.80;99.90;;;;;;5061615;28;20063;-67
2021/04/24 08:37:07;;;;;;;;;;;15.30;99.90;;;;;;5061012;28;20055;-68
2021/04/24 08:39:34;;;;;;;10.50;4.70;;;15.90;99.90;;;;;;5058410;28;19935;-69
2021/04/24 08:42:01;;;;;;;11.30;4.70;;;16.70;95.90;;;;;;5059535;28;20052;-69
2021/04/24 08:44:29;;;;;;;11.45;5.00;;;17.00;92.20;;;;;;5058024;28;20175;-68
2021/04/24 08:46:55;;;;;;;15.13;5.68;;;17.70;91.40;;;;;;5057083;28;20057;-68
2021/04/24 08:49:23;;;;;;;11.23;4.78;;;18.50;84.60;;;;;;5056848;28;20106;-71
2021/04/24 08:51:51;;;;;;;12.70;4.65;;;19.30;80.40;;;;;;5057315;28;20051;-68
2021/04/24 08:54:18;;;;;;;10.52;4.80;;;20.20;72.80;;;;;;5053585;28;20056;-68
2021/04/24 08:56:45;;;;;;;11.65;5.00;;;20.90;69.50;;;;;;5058865;28;20463;-68
2021/04/24 08:59:12;;;;;;;13.48;6.07;;;21.20;65.20;;;;;;5056572;28;20044;-69
2021/04/24 09:05:55;;;;;;;13.25;5.68;;;21.60;60.20;;;;;;5083450;28;20035;-68
2021/04/24 09:08:23;;;;;;;18.50;5.65;;;22.30;59.00;;;;;;5055736;28;20057;-69
2021/04/24 09:10:50;;;;;;;12.23;5.35;;;23.00;57.10;;;;;;5055753;28;20041;-68
2021/04/24 09:13:19;;;;;;;14.85;6.00;;;23.40;56.30;;;;;;5057015;28;20052;-68
2021/04/24 09:15:47;;;;;;;10.52;5.10;;;23.90;54.40;;;;;;5059543;28;20159;-68
2021/04/24 09:18:15;;;;;;;12.40;7.13;;;23.50;52.90;;;;;;5058335;28;20135;-69
2021/04/24 09:20:48;;;;;;;11.82;6.55;;;23.80;52.70;;;;;;5059643;28;20056;-71
2021/04/24 09:23:17;;;;;;;12.73;5.70;;;24.10;51.20;;;;;;5061319;28;20366;-69
2021/04/24 09:25:46;;;;;;;13.30;6.55;;;23.80;52.10;;;;;;5053413;28;20078;-69
2021/04/24 09:28:26;;;;;;;14.75;6.35;;;24.30;51.00;;;;;;5056418;28;20149;-69
2021/04/24 09:30:53;;;;;;;14.50;6.45;;;24.40;50.30;;;;;;5054613;28;20542;-69
2021/04/24 09:33:20;;;;;;;10.05;6.05;;;24.90;50.30;;;;;;5048370;28;20218;-69
2021/04/24 09:35:53;;;;;;;10.57;5.90;;;25.20;48.80;;;;;;5052967;28;20648;-69
2021/04/24 09:38:26;;;;;;;11.70;6.22;;;25.30;47.80;;;;;;5054273;28;20063;-69
2021/04/24 09:41:09;;;;;;;14.50;5.82;;;25.50;47.50;;;;;;5051598;28;20044;-69
2021/04/24 09:44:00;;;;;;;13.05;6.88;;;25.90;47.60;;;;;;5056587;28;20075;-69
2021/04/24 09:46:29;;;;;;;11.05;6.53;;;25.90;46.20;;;;;;5058175;28;20171;-69
2021/04/24 09:49:14;;;;;;;9.98;6.38;;;25.00;47.50;;;;;;5061153;28;20083;-70
2021/04/24 09:51:46;;;;;;;15.98;6.78;;;24.80;46.50;;;;;;5056340;28;20834;-70
2021/04/24 09:54:14;;;;;;;11.98;5.85;;;25.50;46.60;;;;;;5061402;28;20057;-70
2021/04/24 09:56:41;;;;;;;16.60;6.65;;;24.60;46.80;;;;;;5054577;28;20048;-69
2021/04/24 09:59:09;;;;;;;15.50;6.25;;;25.50;47.50;;;;;;5056511;28;20084;-68
2021/04/24 10:01:38;;;;;;;10.93;6.05;;;25.50;47.30;;;;;;5057624;28;20125;-68
2021/04/24 10:04:09;;;;;;;11.85;6.25;;;24.60;46.50;;;;;;5057817;28;20057;-68
2021/04/24 10:06:37;;;;;;;14.38;5.90;;;25.80;47.40;;;;;;5053644;28;20081;-68
2021/04/24 10:09:21;;;;;;;11.57;6.00;;;26.50;46.30;;;;;;5057047;28;20135;-68
2021/04/24 10:12:03;;;;;;;12.77;6.43;;;27.30;45.20;;;;;;5057853;28;20094;-68
2021/04/24 10:14:32;;;;;;;10.05;6.20;;;27.50;44.80;;;;;;5057500;28;20044;-68
2021/04/24 10:16:59;;;;;;;15.75;6.97;;;27.90;44.00;;;;;;5056845;28;20048;-68
2021/04/24 10:19:27;;;;;;;13.38;6.05;;;28.10;43.80;;;;;;5054552;28;20143;-68
2021/04/24 10:21:55;;;;;;;12.48;6.57;;;27.50;43.40;;;;;;5055745;28;20089;-68
2021/04/24 10:24:25;;;;;;;14.82;6.63;;;27.50;43.80;;;;;;5058808;28;20067;-69
2021/04/24 10:26:52;;;;;;;13.77;6.65;;;28.10;43.30;;;;;;5052110;28;20059;-69
2021/04/24 10:29:20;;;;;;;12.00;5.95;;;28.70;42.20;;;;;;5059145;28;20067;-69
2021/04/24 10:31:47;;;;;;;13.38;6.03;;;27.50;43.50;;;;;;5056944;28;20048;-68
2021/04/24 10:34:14;;;;;;;12.50;6.50;;;27.20;42.40;;;;;;5053295;28;20210;-69
2021/04/24 10:36:42;;;;;;;13.70;5.97;;;26.50;43.50;;;;;;5051598;28;20063;-68
2021/04/24 10:39:10;;;;;;;12.88;6.78;;;25.70;43.60;;;;;;5057243;28;20056;-68
2021/04/24 10:41:41;;;;;;;12.35;6.75;;;25.80;43.70;;;;;;5057007;28;20111;-68
2021/04/24 10:44:10;;;;;;;13.07;6.65;;;26.00;43.60;;;;;;5055405;28;20463;-69
2021/04/24 10:46:46;;;;;;;13.43;6.43;;;26.10;44.30;;;;;;5055314;28;20084;-69
2021/04/24 10:49:20;;;;;;;;;;;26.70;44.20;;;;;;5055588;28;20063;-67
2021/04/24 10:51:52;;;;;;;17.02;6.60;;;27.30;44.60;;;;;;5056358;28;20512;-70
2021/04/24 10:54:19;;;;;;;12.18;6.47;;;27.90;43.30;;;;;;5055635;28;20055;-68
2021/04/24 10:56:47;;;;;;;18.98;7.03;;;28.30;42.10;;;;;;5056710;28;20052;-68
2021/04/24 10:59:21;;;;;;;9.82;5.80;;;27.40;42.40;;;;;;5057875;28;20053;-68
2021/04/24 11:02:03;;;;;;;15.23;7.10;;;27.60;42.80;;;;;;5059369;28;20111;-68
2021/04/24 11:04:44;;;;;;;14.30;6.43;;;28.10;42.50;;;;;;5057072;28;20103;-70
2021/04/24 11:07:35;;;;;;;11.57;5.60;;;27.60;43.10;;;;;;5058352;28;20044;-68
2021/04/24 11:10:27;;;;;;;11.38;6.03;;;28.20;42.90;;;;;;5064348;28;20419;-68
2021/04/24 11:12:58;;;;;;;11.15;6.05;;;29.10;42.40;;;;;;5064355;28;20040;-68
2021/04/24 11:15:25;;;;;;;9.32;5.65;;;29.10;41.20;;;;;;5065748;28;20056;-68
2021/04/24 11:17:52;;;;;;;10.80;5.28;;;28.60;40.10;;;;;;5063731;28;20467;-68
2021/04/24 11:20:51;;;;;;;9.35;5.35;;;28.50;40.50;;;;;;5064771;28;20048;-68
2021/04/24 11:23:47;;;;;;;10.80;4.85;;;29.10;40.40;;;;;;5061192;28;20064;-68
2021/04/24 11:26:16;;;;;;;13.00;5.32;;;29.00;40.20;;;;;;5060349;28;20052;-68
2021/04/24 11:29:14;;;;;;;12.85;6.72;;;27.60;39.40;;;;;;5061608;28;20407;-68
2021/04/24 11:32:02;;;;;;;12.93;5.93;;;27.30;39.70;;;;;;4977674;28;21114;-70
2021/04/24 11:34:48;;;;;;;10.75;5.40;;;25.80;40.80;;;;;;5055923;28;20112;-69
2021/04/24 11:37:35;;;;;;;14.23;5.50;;;27.30;40.60;;;;;;5062835;28;20062;-69
2021/04/24 11:40:05;;;;;;;;;;;28.40;39.30;;;;;;5062646;28;20052;-69
2021/04/24 11:42:33;;;;;;;10.20;4.63;;;28.50;39.30;;;;;;5062848;28;20315;-69
2021/04/24 11:45:01;;;;;;;12.05;5.38;;;28.90;40.00;;;;;;5053922;28;20052;-68
2021/04/24 11:47:46;;;;;;;9.82;5.25;;;28.90;38.60;;;;;;5052655;28;20110;-67
2021/04/24 11:50:15;;;;;;;8.38;4.07;;;29.00;38.20;;;;;;5055004;28;20674;-68
2021/04/24 11:52:52;;;;;;;6.15;3.30;;;28.50;36.30;;;;;;5051962;28;20049;-68
2021/04/24 11:55:19;;;;;;;8.48;4.45;;;26.50;34.60;;;;;;5055234;28;20060;-68
2021/04/24 11:57:46;;;;;;;11.27;4.60;;;26.60;36.50;;;;;;5051297;28;20044;-68
2021/04/24 12:00:15;;;;;;;10.65;4.55;;;27.20;37.10;;;;;;5059134;28;20436;-68
2021/04/24 12:02:47;;;;;;;11.38;5.28;;;26.10;36.80;;;;;;5058765;28;20060;-67
2021/04/24 12:05:14;;;;;;;9.70;4.32;;;23.50;39.60;;;;;;5061548;28;20135;-68
2021/04/24 12:07:42;;;;;;;8.90;4.53;;;24.50;40.70;;;;;;5059085;28;20053;-67
2021/04/24 12:10:12;;;;;;;9.40;4.57;;;25.60;39.00;;;;;;5057204;28;20480;-67
2021/04/24 12:12:40;;;;;;;11.80;5.18;;;25.60;40.00;;;;;;5054073;28;20500;-69
2021/04/24 12:15:10;;;;;;;9.18;4.05;;;25.60;39.30;;;;;;5061301;28;20056;-67
2021/04/24 12:17:47;;;;;;;7.78;4.18;;;25.80;39.50;;;;;;5059961;28;20512;-68
2021/04/24 12:20:20;;;;;;;11.20;4.80;;;24.20;36.80;;;;;;5053984;28;20129;-69
2021/04/24 12:22:47;;;;;;;12.00;3.38;;;23.20;38.40;;;;;;5054001;28;20441;-69
2021/04/24 12:25:16;;;;;;;11.60;4.43;;;23.40;38.20;;;;;;5051394;28;20051;-70
2021/04/24 12:27:44;;;;;;;7.88;3.97;;;24.30;38.90;;;;;;5053152;28;20056;-69
2021/04/24 12:30:18;;;;;;;7.68;3.35;;;25.20;38.70;;;;;;5057084;28;20044;-67
2021/04/24 12:32:48;;;;;;;10.57;4.45;;;26.00;38.50;;;;;;5056481;28;20404;-67
2021/04/24 12:35:21;;;;;;;10.38;4.85;;;25.50;36.80;;;;;;5052410;28;20242;-68
2021/04/24 12:37:50;;;;;;;14.95;5.50;;;25.30;38.60;;;;;;5049001;28;20806;-67
2021/04/24 12:40:20;;;;;;;11.23;3.78;;;24.40;40.50;;;;;;5051292;28;20056;-69
2021/04/24 12:42:47;;;;;;;10.27;4.28;;;25.00;40.10;;;;;;5048622;28;20052;-67
2021/04/24 12:45:21;;;;;;;8.38;3.83;;;25.70;37.70;;;;;;5051501;28;20429;-67
2021/04/24 12:47:50;;;;;;;10.77;4.50;;;26.10;37.90;;;;;;5058313;28;20048;-69
2021/04/24 12:50:20;;;;;;;8.38;4.03;;;26.20;37.50;;;;;;5054256;28;20064;-67
2021/04/24 12:52:51;;;;;;;8.25;4.10;;;26.70;37.50;;;;;;5052511;28;20511;-69
2021/04/24 12:55:18;;;;;;;8.05;3.83;;;26.00;37.00;;;;;;5056751;28;20139;-69
2021/04/24 12:57:53;;;;;;;8.50;3.90;;;26.00;36.80;;;;;;5058499;28;20048;-69
2021/04/24 13:00:21;;;;;;;11.05;4.32;;;25.10;38.40;;;;;;5060844;28;20055;-67